Date,TemperatureHighF,TemperatureAvgF,TemperatureLowF,DewpointHighF,DewpointAvgF,DewpointLowF,HumidityHigh,HumidityAvg,HumidityLow,PressureMaxIn,PressureMinIn,WindSpeedMaxMPH,WindSpeedAvgMPH,GustSpeedMaxMPH,PrecipitationSumIn
2013-1-1,59.4,50.0,42.1,58.3,46.8,36.3,96,89,78,30.22,29.93,20,4,20,0.09
2013-1-2,44.4,40.0,35.1,36.6,31.1,28.9,83,71,56,30.31,30.20,16,4,16,0.00
2013-1-3,45.2,40.9,34.9,32.6,30.6,28.9,84,67,56,30.45,30.30,14,2,14,0.00
2013-1-4,42.8,39.7,37.0,38.5,35.9,31.7,93,87,65,30.50,30.38,14,2,14,0.10
2013-1-5,57.9,44.3,36.8,44.2,39.3,33.8,93,83,59,30.38,30.22,10,1,10,0.00
2013-1-6,59.4,45.0,34.3,37.6,33.0,30.0,93,67,36,30.39,30.27,15,4,15,0.00
2013-1-7,52.4,39.3,32.3,38.6,31.9,27.5,83,75,55,30.32,30.13,14,3,14,0.00
2013-1-8,53.0,53.0,53.0,51.6,51.6,51.6,95,95,95,29.88,29.88,5,5,7,0.03
2013-1-9,64.4,57.0,49.6,57.7,54.5,47.1,96,92,78,30.00,29.82,20,6,20,1.55
2013-1-10,65.3,53.6,44.6,48.8,45.4,41.9,98,76,48,30.02,29.95,26,5,26,0.00
2013-1-11,67.8,58.0,45.5,65.3,54.1,41.5,94,87,75,30.01,29.80,22,5,22,0.00
2013-1-12,72.1,66.7,51.4,67.1,61.9,40.6,95,85,59,29.81,29.61,26,8,26,0.01
2013-1-13,53.7,45.9,39.3,40.4,31.8,26.8,66,58,44,30.15,29.80,26,10,26,0.00
2013-1-14,51.6,41.4,34.9,34.3,28.9,23.3,71,61,50,30.23,30.08,18,6,18,0.00
2013-1-15,41.7,37.4,35.3,35.2,32.6,26.6,91,83,70,30.24,30.08,21,7,21,0.00
2013-1-16,52.1,39.5,30.9,25.5,21.2,14.3,70,51,22,30.36,30.19,22,8,22,0.00
2013-1-17,65.5,48.7,34.1,37.5,31.9,23.6,76,55,31,30.47,30.31,16,4,16,0.00
2013-1-18,63.0,48.2,34.3,37.5,34.0,29.2,83,60,34,30.50,30.31,16,3,16,0.00
2013-1-19,45.2,40.3,37.8,36.9,35.6,34.6,89,83,72,30.31,30.24,0,0,0,0.00
2013-1-20,68.5,53.6,39.7,55.1,45.8,37.0,93,77,46,30.24,30.08,14,2,14,0.00
2013-1-21,71.4,56.1,43.3,55.7,47.6,41.0,93,75,46,30.22,30.12,13,2,13,0.00
2013-1-22,70.0,54.6,46.5,52.5,45.9,41.6,85,74,50,30.29,30.17,20,4,20,0.00
2013-1-23,73.2,59.0,47.4,58.2,52.3,44.6,94,80,57,30.32,30.18,20,4,20,0.00
2013-1-24,76.5,65.1,58.8,63.0,59.0,56.5,95,82,62,30.21,30.08,18,4,18,0.00
2013-1-25,76.5,66.6,60.6,62.8,60.5,57.6,93,82,59,30.12,30.00,16,5,16,0.00
2013-1-27,76.5,67.1,60.2,65.5,62.2,58.1,95,85,65,30.06,29.92,25,11,25,0.00
2013-1-28,73.5,70.1,67.8,66.6,65.7,64.7,92,86,76,30.00,29.83,26,13,26,0.00
2013-1-29,78.7,70.4,68.0,66.9,65.8,63.6,93,86,60,29.83,29.54,26,13,26,0.02
2013-1-30,57.9,50.5,36.4,27.9,20.5,14.3,54,32,18,30.23,29.77,33,10,33,0.00
2013-1-31,65.2,47.5,32.6,31.0,23.2,19.1,63,42,19,30.31,30.18,22,4,22,0.00
2013-2-1,70.0,56.6,41.4,45.1,37.3,31.0,78,51,29,30.33,30.16,23,6,23,0.00
2013-2-2,73.7,58.6,44.7,55.2,47.5,38.8,91,68,42,30.26,30.14,20,2,20,0.00
2013-2-3,70.3,60.6,51.1,53.1,43.0,33.9,81,53,33,30.30,29.99,20,5,20,0.00
2013-2-4,73.7,62.5,55.5,60.1,56.0,50.6,92,80,57,29.99,29.77,20,6,20,0.01
2013-2-5,80.5,64.0,49.8,53.5,45.4,35.7,92,58,21,29.96,29.84,12,2,12,0.01
2013-2-6,73.4,63.9,58.9,60.3,57.1,50.1,92,79,60,29.95,29.80,16,3,16,0.01
2013-2-7,78.0,65.5,58.2,62.7,56.7,41.8,95,75,44,30.03,29.83,18,4,18,0.02
2013-2-8,69.2,58.9,48.2,47.9,37.3,30.3,74,47,25,30.19,30.03,20,5,20,0.00
2013-2-9,67.1,58.3,51.1,65.9,54.4,34.6,98,88,48,30.06,29.76,23,6,23,0.07
2013-2-10,67.5,63.4,55.9,66.0,45.3,28.9,96,57,27,29.99,29.72,26,6,26,0.06
2013-2-11,58.8,55.5,51.4,46.4,41.5,37.5,74,60,46,30.02,29.92,14,2,14,0.02
2013-2-12,67.0,50.8,40.1,40.7,32.6,24.5,73,53,22,30.13,29.87,12,3,26,0.02
2013-2-13,57.3,57.3,57.3,46.4,46.4,46.4,67,67,67,30.00,30.00,7,7,7,0.00
2013-2-14,68.1,60.7,50.4,39.6,38.2,36.1,61,44,31,30.08,29.99,17,5,21,0.00
2013-2-15,65.5,52.6,40.1,43.9,37.4,24.5,88,60,34,30.36,30.07,18,5,18,0.00
2013-2-17,68.3,55.0,39.8,52.5,38.3,27.9,74,54,37,30.21,29.96,26,11,26,0.00
2013-2-18,79.7,66.3,59.2,60.3,48.0,26.3,89,58,18,30.03,29.81,24,10,24,0.01
2013-2-19,67.0,57.7,46.9,33.3,31.0,27.5,56,37,24,30.21,30.03,20,7,20,0.00
2013-2-20,67.7,58.5,52.6,64.7,51.1,27.7,95,78,32,30.10,29.63,26,9,26,0.02
2013-2-21,76.9,67.3,54.8,66.1,43.6,21.6,92,52,14,29.82,29.55,29,9,29,0.01
2013-2-22,62.2,52.1,47.3,39.1,33.6,23.8,70,51,30,29.99,29.81,20,5,20,0.00
2013-2-23,61.7,58.8,54.6,49.8,46.8,43.5,66,64,63,29.86,29.85,13,6,21,0.00
2013-2-24,69.0,56.5,40.4,58.5,48.3,34.7,92,74,61,29.90,29.57,24,7,24,0.00
2013-2-25,61.4,55.9,46.4,59.9,35.2,17.0,95,51,18,29.84,29.55,44,19,44,0.00
2013-2-26,65.7,51.0,38.8,29.5,27.4,25.3,61,43,23,29.94,29.83,25,7,25,0.00
2013-2-27,63.6,53.3,43.4,34.2,29.1,22.9,65,40,24,30.21,29.86,29,7,29,0.00
2013-2-28,59.4,47.2,40.7,29.5,26.3,21.4,55,45,26,30.32,30.19,17,4,17,0.00
2013-3-1,69.8,52.1,32.8,28.8,23.0,13.0,66,37,13,30.29,30.09,26,5,26,0.00
2013-3-2,64.5,50.4,37.2,31.3,27.4,24.3,62,43,26,30.41,30.24,24,4,24,0.00
2013-3-3,74.6,55.7,36.2,43.5,33.0,25.4,68,45,22,30.26,29.93,26,9,26,0.00
2013-3-4,85.8,65.4,49.4,52.4,45.4,39.6,85,54,21,29.94,29.69,23,6,23,0.00
2013-3-5,65.8,56.5,43.4,54.6,28.7,13.7,90,40,15,30.33,29.75,36,9,36,0.00
2013-3-6,62.7,48.7,35.4,24.3,19.0,13.7,47,32,16,30.43,30.21,14,2,14,0.00
2013-3-7,71.9,56.3,39.3,54.6,44.6,24.0,87,66,42,30.22,30.07,22,8,22,0.00
2013-3-8,66.2,62.2,59.0,63.6,58.8,53.1,94,89,78,30.11,29.96,23,9,23,0.05
2013-3-9,73.4,65.8,61.1,68.0,62.9,58.8,96,91,78,29.98,29.59,32,11,32,0.14
2013-3-10,66.1,59.8,45.8,63.2,41.6,32.6,93,54,31,30.11,29.59,29,8,29,0.71
2013-3-11,69.6,51.1,35.2,35.7,30.0,22.4,81,51,21,30.18,29.99,23,4,23,0.00
2013-3-12,77.5,66.2,40.4,39.9,34.4,29.2,73,33,18,30.20,30.06,22,7,22,0.00
2013-3-13,74.9,59.7,43.7,45.5,39.9,36.8,86,52,27,30.40,30.20,16,3,16,0.00
2013-3-15,78.8,64.9,51.9,56.5,50.2,41.4,93,64,28,30.23,29.97,25,8,25,0.00
2013-3-16,82.5,66.2,55.1,61.5,55.6,48.7,94,72,32,29.98,29.71,26,10,26,0.00
2013-3-17,83.6,71.0,64.4,64.6,60.6,57.4,88,72,42,29.78,29.60,23,7,23,0.00
2013-3-18,92.0,74.8,63.1,66.2,51.9,31.3,94,56,12,29.88,29.67,25,6,25,0.00
2013-3-19,80.2,67.7,53.7,64.1,55.1,44.6,75,64,52,29.95,29.77,22,5,22,0.00
2013-3-20,70.3,60.3,56.6,60.4,51.8,50.4,83,74,59,30.17,29.92,21,6,21,0.00
2013-3-21,73.7,69.7,62.5,60.7,58.0,54.7,85,67,59,29.85,29.60,29,15,29,0.00
2013-3-22,80.7,67.9,64.7,65.8,63.4,60.6,95,87,55,29.68,29.60,21,6,21,0.00
2013-3-23,82.2,71.9,54.8,62.9,59.2,50.1,88,65,51,29.74,29.53,13,3,13,0.00
2013-3-24,65.5,54.0,44.1,57.7,32.2,21.5,86,47,23,30.14,29.66,31,11,31,0.00
2013-3-25,60.6,48.8,38.4,25.5,19.8,9.0,53,34,16,30.37,30.14,15,3,15,0.00
2013-3-26,64.7,51.6,37.4,25.7,21.5,18.6,50,32,18,30.48,30.27,15,3,15,0.00
2013-3-27,66.3,54.3,37.8,48.9,38.7,26.0,76,56,39,30.31,30.14,23,8,23,0.00
2013-3-28,68.4,62.9,57.5,58.5,55.3,48.8,83,76,68,30.17,30.09,23,9,23,0.00
2013-3-29,76.1,67.2,59.1,60.5,57.4,55.1,93,73,50,30.14,30.00,22,9,22,0.00
2013-3-30,82.2,73.4,64.5,63.5,60.9,58.6,87,67,47,30.08,29.85,20,8,20,0.00
2013-3-31,80.6,68.6,61.6,65.1,62.4,58.6,91,82,55,29.91,29.79,21,5,21,0.02
2013-4-1,84.5,70.6,59.9,65.7,61.2,57.3,94,75,44,30.01,29.84,28,5,28,0.06
2013-4-2,76.6,68.9,59.4,65.9,62.9,55.6,93,82,67,29.99,29.76,24,7,24,0.36
2013-4-3,58.9,53.6,49.8,55.6,50.7,46.1,93,90,86,30.11,29.72,24,10,24,0.23
2013-4-4,65.8,56.8,46.7,46.2,43.5,40.7,85,62,47,30.20,30.07,13,5,21,0.00
2013-4-5,71.8,55.2,39.7,49.8,44.1,36.4,98,69,42,30.26,30.05,16,2,16,0.00
2013-4-6,79.2,64.9,50.6,58.1,53.9,45.6,91,70,47,30.06,29.82,28,10,28,0.00
2013-4-7,83.4,68.6,60.1,65.0,60.7,56.6,90,78,50,29.88,29.71,26,10,26,0.00
2013-4-8,74.1,68.5,65.6,66.7,64.0,61.1,92,86,77,29.79,29.62,20,8,23,0.00
2013-4-9,86.6,77.6,69.2,69.3,67.6,65.5,89,73,54,29.67,29.51,14,7,23,0.01
2013-4-10,73.3,59.5,45.5,68.4,52.7,42.1,91,79,61,29.89,29.58,33,14,33,0.06
2013-4-11,69.2,53.2,45.2,43.2,38.6,33.1,87,60,35,29.96,29.78,27,6,27,0.02
2013-4-13,64.6,64.0,63.6,62.2,61.8,61.5,93,93,92,29.73,29.72,7,4,13,0.00
2013-4-14,86.8,78.7,64.8,67.2,63.3,59.2,92,61,42,29.73,29.57,25,10,25,0.00
2013-4-15,88.7,78.7,68.9,67.0,64.6,60.4,88,65,42,29.75,29.64,15,7,21,0.00
2013-4-16,84.3,77.9,66.0,68.9,66.7,62.5,89,69,57,29.84,29.73,14,7,24,0.00
2013-4-17,79.0,74.3,71.6,71.2,69.9,68.3,94,86,71,29.82,29.61,25,13,25,0.01
2013-4-18,74.6,63.9,53.2,70.5,54.0,35.8,91,72,43,30.01,29.59,30,12,30,0.06
2013-4-19,69.3,53.6,41.3,39.1,32.6,23.0,75,49,19,30.28,30.01,23,3,23,0.00
2013-4-20,72.7,55.2,39.1,47.1,33.3,28.2,78,48,21,30.21,29.96,22,5,22,0.00
2013-4-21,79.0,64.6,52.2,58.3,52.2,46.4,83,66,43,30.11,29.95,22,6,22,0.00
2013-4-22,82.5,69.5,58.7,61.9,58.7,56.0,93,71,44,30.07,29.83,22,10,22,0.00
2013-4-23,73.0,67.9,65.5,65.5,62.8,60.8,88,84,77,29.90,29.81,20,11,20,0.00
2013-4-24,61.9,58.1,48.5,39.7,37.7,34.8,60,47,41,30.24,30.14,30,5,30,0.00
2013-4-25,67.2,60.5,55.9,50.7,43.3,39.6,67,54,40,30.30,30.15,15,4,15,0.00
2013-4-26,78.2,67.4,58.6,68.9,62.3,49.8,95,84,66,30.17,29.99,21,7,21,0.02
2013-4-27,82.0,72.3,65.3,68.0,66.4,62.9,93,83,60,30.05,29.88,18,4,18,0.69
2013-4-28,81.3,70.3,59.4,64.9,62.0,57.7,95,77,49,29.98,29.82,22,4,22,0.01
2013-4-29,83.5,71.5,65.2,66.4,63.8,59.1,94,79,45,29.90,29.71,31,7,31,0.29
2013-4-30,81.4,71.1,65.0,67.1,64.6,63.0,95,81,58,29.80,29.67,14,3,23,0.00
2013-5-1,84.5,75.0,66.4,68.3,66.4,63.8,93,76,57,29.88,29.74,20,4,20,0.00
2013-5-2,75.9,56.3,48.8,67.2,48.8,36.4,93,76,60,30.32,29.81,40,18,40,0.90
2013-5-3,67.2,55.0,45.4,37.9,32.5,28.1,65,45,25,30.34,30.08,28,10,28,0.00
2013-5-4,79.9,62.3,44.1,44.2,36.1,29.1,75,42,18,30.09,29.86,20,5,20,0.00
2013-5-5,79.5,64.8,52.2,47.1,42.1,37.6,64,46,25,30.11,29.95,18,4,18,0.00
2013-5-6,74.6,63.2,49.1,52.6,47.8,43.4,82,59,41,30.12,29.96,12,2,12,0.00
2013-5-7,82.5,68.1,50.6,59.6,52.2,46.4,88,60,31,30.06,29.89,20,5,20,0.00
2013-5-8,82.8,71.2,62.1,65.4,62.1,56.8,91,74,51,29.97,29.83,22,9,22,0.00
2013-5-9,77.9,72.0,62.0,71.3,67.0,57.8,92,84,75,29.96,29.78,37,7,37,0.13
2013-5-10,82.2,70.4,59.4,67.4,62.4,57.1,95,78,54,29.97,29.79,34,5,35,0.37
2013-5-11,69.3,65.2,61.7,60.3,59.5,58.4,90,82,71,30.06,29.99,6,2,17,0.00
2013-5-12,79.1,74.9,67.5,54.0,51.7,48.8,57,45,38,30.18,30.07,12,3,18,0.00
2013-5-13,82.1,70.1,53.3,57.1,52.0,46.6,83,55,34,30.23,30.11,17,3,17,0.00
2013-5-14,83.3,71.8,58.4,66.5,60.8,53.6,91,70,51,30.19,29.95,24,8,24,0.00
2013-5-15,72.1,70.1,68.9,67.6,66.6,65.8,93,89,81,30.05,29.97,18,5,18,0.00
2013-5-16,93.4,79.1,73.3,73.5,70.7,68.4,90,77,45,29.82,29.65,13,5,20,0.00
2013-5-17,93.7,80.0,71.1,73.3,70.4,67.4,92,74,46,29.87,29.72,13,5,20,0.00
2013-5-18,92.5,85.4,76.1,71.6,67.0,64.0,73,55,44,29.86,29.75,30,16,30,0.00
2013-5-19,89.8,79.6,72.0,71.5,69.0,64.7,88,72,53,29.81,29.66,30,12,30,0.00
2013-5-20,91.0,79.6,71.3,71.7,69.5,67.0,92,73,50,29.79,29.64,26,12,26,0.00
2013-5-21,87.5,79.2,72.3,72.5,70.1,59.8,92,75,59,29.82,29.64,28,9,28,0.00
2013-5-22,87.7,75.0,63.6,71.5,60.9,54.9,77,62,49,29.88,29.77,21,4,21,0.00
2013-5-23,89.9,79.7,73.2,72.0,70.9,69.5,92,76,52,30.05,29.80,12,3,21,0.00
2013-5-24,76.4,70.1,67.0,72.3,68.0,64.1,95,93,76,30.06,29.97,26,3,26,1.23
2013-5-25,78.8,71.7,67.7,70.9,68.6,66.2,96,90,70,30.11,29.96,22,5,22,5.17
2013-5-26,81.5,75.2,70.0,73.4,70.3,67.0,95,85,72,30.05,29.92,21,7,21,0.09
2013-5-27,86.1,77.1,70.7,72.9,70.1,67.2,93,80,61,30.00,29.79,25,11,25,0.00
2013-5-28,86.9,77.9,72.5,71.9,69.9,68.5,89,77,58,29.87,29.70,27,15,27,0.00
2013-5-29,82.8,77.0,72.8,73.1,70.8,69.2,91,82,68,29.85,29.66,29,16,29,0.00
2013-5-30,87.0,79.3,74.0,73.4,71.6,70.3,89,78,62,29.79,29.70,23,12,28,0.00
2013-5-31,90.6,80.5,74.0,75.1,72.7,70.8,91,78,54,29.83,29.69,24,12,24,0.00
2013-6-1,93.0,82.4,75.4,73.9,72.5,70.7,89,73,50,29.85,29.74,27,10,27,0.00
2013-6-2,86.3,76.2,65.5,73.3,65.0,56.1,94,71,36,30.00,29.84,20,2,20,0.60
2013-6-3,89.2,76.3,63.5,69.3,64.7,60.6,93,70,43,29.95,29.79,14,2,14,0.00
2013-6-4,90.2,79.1,68.7,69.8,67.0,60.3,94,69,38,29.86,29.75,17,5,17,0.00
2013-6-5,90.2,79.2,68.0,70.2,67.5,64.9,93,70,44,29.84,29.69,17,6,18,0.00
2013-6-6,91.7,79.5,68.4,71.4,67.6,64.5,94,70,43,29.88,29.71,14,2,14,0.00
2013-6-7,78.7,74.1,69.0,68.7,65.1,62.6,82,74,67,29.95,29.83,15,2,15,0.00
2013-6-8,87.5,79.1,62.1,71.1,67.1,58.0,88,68,54,29.89,29.74,12,4,20,0.00
2013-6-9,87.3,78.7,73.4,74.0,71.3,67.2,92,79,62,29.91,29.79,18,3,18,0.00
2013-6-10,73.3,70.8,69.2,71.4,67.7,65.8,94,90,82,29.94,29.91,4,0,4,0.00
2013-6-12,89.3,77.6,73.3,75.2,72.4,69.0,94,86,56,30.02,29.91,15,2,24,0.02
2013-6-13,87.5,76.7,73.2,75.4,71.6,68.4,94,85,63,30.02,29.88,18,1,30,0.02
2013-6-14,84.2,79.7,74.8,75.3,73.8,71.6,94,83,70,29.95,29.85,13,2,13,0.01
2013-6-15,88.9,80.1,75.3,75.0,73.4,70.2,94,81,58,29.95,29.84,14,2,14,0.01
2013-6-16,92.2,82.3,74.6,73.8,71.7,67.1,92,72,45,29.97,29.84,21,8,21,0.00
2013-6-17,92.2,83.1,75.8,74.0,71.7,68.0,89,71,49,29.95,29.80,20,8,20,0.00
2013-6-18,93.2,82.7,75.2,72.7,69.4,61.1,89,67,36,29.95,29.82,17,4,17,0.00
2013-6-19,93.7,83.2,74.6,72.6,69.8,62.6,90,67,37,29.94,29.84,24,8,24,0.00
2013-6-20,93.0,82.6,73.7,72.3,69.8,65.5,89,67,45,30.00,29.89,23,10,24,0.00
2013-6-21,92.8,83.1,75.5,73.3,69.1,60.8,89,66,39,30.02,29.91,25,12,25,0.00
2013-6-22,93.2,82.9,74.3,72.2,69.0,62.4,90,66,39,29.99,29.83,23,11,23,0.00
2013-6-23,92.7,82.3,75.4,72.4,68.6,59.8,90,66,36,29.93,29.83,23,11,23,0.00
2013-6-24,93.8,82.8,75.8,73.1,70.3,66.2,88,69,43,29.97,29.83,20,10,25,0.00
2013-6-25,95.1,86.5,75.8,72.0,68.8,64.6,88,58,37,29.95,29.81,16,10,27,0.00
2013-6-26,96.8,84.6,75.5,72.8,70.7,66.7,88,66,39,29.92,29.81,22,12,22,0.00
2013-6-27,98.3,85.1,74.3,72.9,67.4,55.1,87,60,24,29.97,29.84,17,6,20,0.00
2013-6-28,101.4,86.7,74.4,72.3,67.0,58.9,90,57,27,29.95,29.75,18,4,18,0.00
2013-6-29,105.5,90.7,73.7,70.6,64.5,58.5,80,46,23,29.83,29.67,15,3,15,0.00
2013-6-30,89.8,78.6,68.8,72.4,66.6,60.8,93,69,39,29.93,29.74,26,4,26,0.16
2013-7-1,86.3,78.6,70.9,67.6,58.5,53.1,79,51,36,29.96,29.83,17,4,17,0.00
2013-7-2,90.2,77.6,63.9,60.4,54.6,47.0,77,49,23,30.04,29.91,21,5,21,0.00
2013-7-3,93.8,85.5,67.0,57.2,47.5,41.8,60,30,17,29.98,29.83,7,1,20,0.00
2013-7-4,93.3,83.8,64.9,68.7,60.0,52.6,91,49,27,29.94,29.82,20,3,20,0.00
2013-7-5,94.5,82.4,68.8,70.4,63.3,58.4,90,56,31,29.93,29.77,18,4,18,0.00
2013-7-6,94.3,82.1,69.8,72.0,65.8,58.4,89,62,31,29.89,29.75,18,4,18,0.00
2013-7-7,95.0,81.4,73.1,73.2,70.8,68.0,91,72,42,29.92,29.81,31,4,31,0.00
2013-7-8,85.1,79.0,74.3,73.1,71.2,67.3,90,78,60,30.05,29.92,18,4,18,0.01
2013-7-9,95.1,85.7,74.4,74.3,70.7,66.4,94,64,40,30.10,29.95,12,4,23,0.00
2013-7-10,95.5,84.1,74.1,73.7,70.3,65.4,92,66,39,30.05,29.86,21,5,21,0.00
2013-7-11,94.8,84.1,74.2,73.2,68.7,61.1,90,63,34,29.96,29.82,17,5,17,0.00
2013-7-12,97.1,85.0,73.4,72.6,67.1,56.1,91,60,27,29.92,29.81,16,4,16,0.00
2013-7-13,98.8,90.1,71.4,70.2,63.6,57.0,83,45,26,29.92,29.78,10,2,17,0.00
2013-7-14,96.6,81.9,73.9,71.2,66.7,61.5,85,62,33,29.84,29.78,20,5,20,0.00
2013-7-15,80.3,74.3,69.8,74.3,71.1,67.2,94,90,77,29.97,29.81,17,3,17,0.99
2013-7-16,81.0,73.6,70.4,76.2,71.4,67.5,95,93,77,30.07,29.96,39,2,39,1.22
2013-7-17,85.5,74.2,70.9,73.2,70.6,68.5,96,89,59,30.13,30.06,29,3,29,0.02
2013-7-18,89.2,78.3,71.0,73.7,70.0,66.4,94,77,49,30.11,29.95,18,3,18,0.00
2013-7-19,92.0,80.6,70.8,73.5,69.1,65.7,94,71,43,30.03,29.85,15,2,15,0.00
2013-7-20,92.3,81.1,71.1,73.0,69.0,61.7,93,69,39,29.95,29.79,25,3,25,0.00
2013-7-21,91.5,81.7,74.7,75.3,72.4,68.4,92,75,49,29.91,29.81,17,5,17,0.00
2013-7-22,93.5,83.9,76.9,74.9,72.9,67.7,90,72,44,29.93,29.82,22,10,22,0.00
2013-7-23,94.7,84.4,76.3,74.4,70.7,64.0,86,66,38,29.96,29.81,26,11,26,0.00
2013-7-24,94.5,83.7,75.3,74.0,71.2,66.7,90,69,41,29.95,29.80,17,5,17,0.00
2013-7-25,96.0,84.1,73.6,72.7,70.4,64.7,91,66,38,29.98,29.89,22,5,22,0.00
2013-7-26,95.3,83.9,72.8,75.3,71.3,66.4,92,68,40,29.98,29.82,20,5,20,0.00
2013-7-27,89.4,81.3,74.1,75.5,72.0,68.4,93,75,52,29.94,29.80,16,2,20,0.10
2013-7-28,93.9,82.9,74.2,74.4,70.5,66.8,85,68,43,29.90,29.78,24,5,24,0.00
2013-7-29,96.6,84.9,77.0,74.2,70.3,61.7,86,65,32,29.98,29.87,24,11,24,0.00
2013-7-30,97.8,85.1,76.8,73.3,69.8,61.5,86,64,31,30.03,29.90,22,11,22,0.00
2013-7-31,99.4,84.9,73.3,72.1,66.2,53.3,90,59,22,30.04,29.87,17,5,17,0.00
2013-8-1,98.8,86.7,73.5,73.4,68.3,64.9,88,58,34,29.98,29.83,15,3,15,0.00
2013-8-2,97.5,85.5,73.4,72.5,67.2,64.1,85,57,34,29.93,29.81,18,6,18,0.00
2013-8-3,97.6,85.4,75.6,72.9,69.4,64.0,88,62,37,29.97,29.85,24,9,24,0.00
2013-8-4,96.7,85.2,76.9,74.2,71.3,67.2,89,66,40,30.00,29.85,24,8,24,0.00
2013-8-5,98.8,87.4,73.2,72.8,68.0,63.7,89,57,32,29.99,29.83,23,7,23,0.00
2013-8-6,100.2,93.9,77.5,73.1,67.2,61.6,85,44,29,29.90,29.74,22,10,22,0.00
2013-8-7,100.5,86.6,76.7,73.6,69.4,59.1,87,61,27,29.87,29.73,21,9,21,0.00
2013-8-8,100.4,86.1,75.9,72.4,69.1,56.2,85,61,24,29.86,29.72,21,9,21,0.00
2013-8-9,99.4,85.3,72.8,73.2,66.2,56.4,91,59,25,29.92,29.79,17,4,17,0.00
2013-8-10,98.8,84.7,73.9,74.7,70.5,65.5,84,65,35,29.99,29.85,25,3,25,0.05
2013-8-11,95.9,82.4,73.3,74.5,70.6,65.1,93,70,37,30.02,29.90,29,3,29,0.00
2013-8-12,94.2,83.1,72.1,71.6,69.2,65.3,92,66,40,30.02,29.88,20,5,20,0.00
2013-8-13,97.0,85.5,75.2,73.2,69.3,64.1,89,62,35,29.99,29.83,20,6,20,0.00
2013-8-14,100.0,86.0,75.4,72.5,68.5,59.9,88,59,28,29.95,29.80,21,6,21,0.00
2013-8-15,96.3,82.8,74.2,72.2,68.4,62.3,84,64,35,29.95,29.83,29,3,29,0.00
2013-8-16,95.3,82.5,70.6,74.1,67.4,57.8,92,64,29,29.98,29.85,23,2,23,0.00
2013-8-17,94.7,82.7,70.5,71.1,63.4,55.3,88,57,28,29.98,29.86,18,2,18,0.00
2013-8-18,94.0,82.0,68.4,66.4,59.9,56.3,68,49,32,30.00,29.90,14,2,14,0.00
2013-8-19,92.5,81.0,68.5,65.4,61.7,57.9,80,54,34,30.01,29.86,18,3,18,0.00
2013-8-20,92.5,80.3,68.0,70.6,65.7,57.6,88,64,33,29.97,29.89,22,4,22,0.00
2013-8-21,93.8,80.7,72.2,72.7,69.1,65.1,89,70,41,30.02,29.92,24,4,24,0.00
2013-8-22,94.3,83.5,71.6,73.3,69.2,64.8,91,65,40,30.03,29.86,16,3,16,0.00
2013-8-23,96.0,84.7,72.1,74.3,67.9,62.5,90,60,36,29.97,29.83,17,3,17,0.00
2013-8-24,97.7,85.8,74.2,71.7,67.8,64.1,81,58,35,29.99,29.85,28,4,28,0.00
2013-8-25,94.2,83.5,72.3,71.7,68.2,64.7,82,62,40,30.02,29.92,20,5,20,0.00
2013-8-26,86.8,76.9,72.6,73.9,71.4,68.9,94,84,57,30.06,29.97,17,3,17,0.21
2013-8-27,89.2,78.2,72.4,74.1,71.1,66.5,95,81,50,30.07,29.97,20,4,20,0.02
2013-8-28,93.3,81.9,71.5,73.9,69.1,65.4,94,69,42,30.07,29.94,15,3,15,0.00
2013-8-29,97.0,84.0,72.3,73.1,67.7,63.5,92,62,34,30.05,29.90,16,2,16,0.00
2013-8-30,98.2,86.7,74.8,70.6,66.7,63.5,79,54,34,29.98,29.81,17,4,17,0.00
2013-8-31,96.3,85.3,72.2,71.1,67.6,64.4,86,58,37,29.89,29.76,20,4,20,0.00
2013-9-1,97.0,85.1,72.7,72.8,68.1,63.8,89,60,36,29.87,29.74,17,4,17,0.00
2013-9-2,97.8,85.3,74.8,73.8,68.8,62.8,90,61,32,29.92,29.76,20,4,20,0.00
2013-9-3,98.4,84.9,69.9,71.2,65.5,61.1,85,56,30,29.95,29.81,16,3,16,0.00
2013-9-4,95.9,84.1,75.1,71.7,69.1,65.4,87,63,37,30.00,29.87,20,3,20,0.00
2013-9-5,95.2,81.5,71.2,72.6,68.6,66.2,89,67,41,30.05,29.93,26,2,26,0.00
2013-9-6,94.8,82.7,71.9,73.1,69.1,65.0,89,66,38,30.04,29.89,18,3,18,0.00
2013-9-7,93.6,81.1,72.8,73.7,69.4,65.9,89,70,42,29.98,29.83,23,3,23,0.00
2013-9-8,89.7,77.3,72.5,74.1,70.8,67.9,93,81,52,29.93,29.84,28,2,28,0.15
2013-9-9,90.2,77.0,70.3,73.0,69.5,66.2,94,79,46,29.94,29.86,33,5,33,0.01
2013-9-10,88.3,76.2,70.8,74.6,70.8,67.9,95,85,53,30.01,29.92,20,3,20,0.09
2013-9-11,91.7,79.2,70.4,75.4,69.7,59.3,94,76,35,30.05,29.93,21,4,21,0.11
2013-9-12,93.6,80.8,70.5,73.4,67.2,59.6,94,67,33,30.02,29.85,15,2,15,0.00
2013-9-13,93.8,82.8,71.7,69.6,64.1,57.4,87,57,31,29.93,29.76,18,3,18,0.00
2013-9-14,93.7,80.7,68.3,72.5,65.6,61.6,90,63,38,29.89,29.78,22,4,22,0.06
2013-9-15,92.0,79.9,71.2,73.9,70.2,67.4,94,75,46,29.96,29.86,18,3,18,0.01
2013-9-16,86.8,76.1,71.0,75.1,71.3,67.7,93,86,61,30.00,29.90,23,3,23,0.52
2013-9-17,87.2,77.6,70.8,76.2,71.1,69.0,95,82,57,30.01,29.89,21,2,21,0.01
2013-9-18,90.3,78.8,72.8,74.0,71.2,67.9,94,79,50,29.97,29.83,16,3,16,0.06
2013-9-19,88.8,78.4,73.7,76.1,72.9,70.7,95,84,58,29.90,29.76,23,2,23,0.07
2013-9-20,77.9,74.5,70.3,76.0,72.3,67.9,95,93,90,29.82,29.71,20,4,20,0.63
2013-9-21,84.2,74.0,65.0,68.3,61.7,51.7,92,69,36,29.88,29.78,23,7,23,0.00
2013-9-22,84.8,71.1,58.4,55.1,50.6,44.4,75,52,26,29.87,29.74,14,3,14,0.00
2013-9-23,89.0,72.3,55.2,58.4,52.6,49.4,83,54,28,29.81,29.71,12,1,12,0.00
2013-9-24,95.2,77.8,63.0,62.9,57.3,54.3,75,53,27,29.89,29.78,13,2,13,0.00
2013-9-25,93.0,79.9,66.5,65.6,60.6,57.8,78,54,34,29.85,29.73,17,3,17,0.00
2013-9-26,89.5,78.7,68.3,73.1,65.8,56.9,91,67,40,29.85,29.75,20,6,20,0.00
2013-9-27,88.0,79.8,74.5,76.9,73.6,71.2,92,82,65,29.86,29.76,24,9,24,0.00
2013-9-28,87.5,79.8,75.2,75.4,73.9,71.7,92,83,61,29.92,29.81,24,7,24,0.00
2013-9-29,76.5,70.7,65.3,72.9,66.6,63.5,95,87,73,30.00,29.89,21,4,21,1.56
2013-9-30,87.5,73.1,59.8,65.2,60.9,56.7,94,70,37,29.92,29.77,15,2,15,0.01
2013-10-1,88.8,77.4,66.8,73.6,69.6,60.4,95,79,50,29.87,29.77,16,4,16,0.00
2013-10-2,88.5,80.0,74.5,73.7,71.4,67.9,93,77,54,29.91,29.80,17,6,17,0.00
2013-10-3,88.2,80.0,73.8,72.9,70.7,68.0,91,75,54,29.88,29.77,22,8,22,0.00
2013-10-4,88.9,78.9,71.9,72.2,69.9,67.7,93,76,52,29.87,29.78,23,7,23,0.00
2013-10-5,87.2,76.1,62.8,71.7,65.0,43.8,91,70,49,29.99,29.83,23,7,23,0.00
2013-10-6,79.3,65.3,53.6,53.7,47.2,38.7,92,57,26,30.11,29.97,21,5,21,0.17
2013-10-7,84.6,66.7,51.0,51.7,45.2,36.3,77,51,21,30.15,30.01,12,3,12,0.00
2013-10-8,82.3,66.9,52.4,52.8,48.8,44.6,81,56,29,30.06,29.95,20,3,20,0.00
2013-10-9,81.7,68.5,55.7,62.4,57.3,48.2,91,69,46,30.03,29.91,16,3,16,0.00
2013-10-10,83.0,72.6,63.1,67.0,63.8,60.0,92,75,54,29.99,29.83,20,5,20,0.00
2013-10-11,87.1,77.6,71.4,73.7,70.9,65.8,90,80,58,29.89,29.77,20,7,20,0.00
2013-10-12,89.3,80.0,75.7,74.7,72.9,69.6,93,80,53,29.95,29.84,17,5,17,0.15
2013-10-13,76.1,71.7,65.3,73.9,69.8,63.3,95,94,89,30.12,29.94,15,4,15,1.07
2013-10-14,82.6,75.1,71.2,73.1,70.8,69.7,96,87,67,30.05,29.86,20,5,20,0.00
2013-10-15,82.8,74.7,61.9,71.0,68.5,57.3,93,82,62,29.94,29.82,20,4,20,0.00
2013-10-16,61.8,57.5,54.2,57.3,55.1,52.3,94,92,85,30.05,29.89,18,8,18,0.66
2013-10-17,73.4,61.1,52.4,57.4,51.7,46.8,90,73,46,30.11,29.95,12,2,12,0.00
2013-10-18,71.5,63.9,55.9,64.7,59.2,52.1,93,85,78,29.98,29.84,12,1,12,0.00
2013-10-19,68.0,58.3,47.8,63.6,46.1,38.8,94,67,36,30.16,29.95,22,7,22,0.00
2013-10-20,72.9,57.6,43.6,53.8,46.4,40.6,91,69,41,30.08,29.90,16,3,16,0.00
2013-10-21,78.3,67.5,58.5,69.5,61.7,52.3,91,82,69,30.02,29.86,15,2,15,0.11
2013-10-22,75.0,63.2,53.8,55.7,46.9,36.7,84,60,27,30.13,30.02,18,6,18,0.00
2013-10-23,79.1,62.9,49.5,51.9,44.5,36.7,78,56,24,30.17,30.07,15,4,15,0.00
2013-10-24,79.1,64.1,49.8,54.5,48.9,43.5,80,61,34,30.20,30.10,13,2,13,0.00
2013-10-25,78.3,65.6,51.2,62.2,56.6,48.1,90,74,53,30.27,30.16,18,4,18,0.00
2013-10-26,79.6,69.9,63.5,65.6,62.8,61.1,93,79,57,30.18,30.03,21,4,21,0.00
2013-10-27,75.2,68.4,65.6,69.2,65.3,61.8,93,90,76,30.06,29.95,10,1,10,0.13
2013-10-28,80.5,72.6,65.7,69.3,66.2,62.8,95,81,62,30.04,29.93,22,8,22,0.01
2013-10-29,82.2,74.8,70.2,70.5,68.1,66.3,91,81,62,30.03,29.91,25,11,25,0.00
2013-10-30,81.0,76.0,72.6,75.3,72.0,68.5,94,88,75,29.98,29.74,23,8,23,1.82
2013-10-31,80.7,71.7,56.3,72.4,58.7,38.9,94,70,24,29.86,29.73,29,6,29,1.59
2013-11-1,83.2,65.2,49.1,59.3,47.4,37.1,88,58,22,30.04,29.81,21,6,21,0.00
2013-11-2,72.9,62.7,50.5,44.9,40.6,33.1,73,47,24,30.27,30.04,20,5,20,0.00
2013-11-3,68.5,54.8,43.1,41.7,39.4,35.8,84,59,32,30.19,30.02,17,4,17,0.00
2013-11-4,68.2,63.2,59.1,62.8,58.0,53.4,92,83,75,30.03,29.92,13,1,13,0.02
2013-11-5,77.8,70.4,64.5,68.4,65.6,62.3,95,86,68,29.98,29.85,20,4,20,0.00
2013-11-6,74.8,64.4,55.2,69.1,57.1,40.9,90,78,57,30.27,29.93,25,7,25,0.05
2013-11-7,62.4,54.1,46.5,43.2,38.4,32.3,69,57,35,30.43,30.27,17,4,17,0.00
2013-11-8,62.4,56.2,49.6,48.2,41.9,35.1,76,60,39,30.36,30.15,14,2,14,0.00
2013-11-9,67.3,60.2,53.4,59.1,53.8,45.6,91,80,68,30.17,30.08,13,1,13,0.09
2013-11-10,65.7,62.6,60.7,58.5,57.3,55.4,90,83,71,30.26,30.14,7,1,7,0.00
2013-11-11,74.8,64.0,55.5,58.2,54.2,49.7,87,72,50,30.24,30.12,9,0,9,0.00
2013-11-12,62.9,55.1,44.1,54.7,46.4,26.5,87,73,49,30.59,30.20,22,6,22,0.00
2013-11-13,55.9,43.4,34.8,33.4,27.6,24.8,77,55,32,30.63,30.39,13,2,13,0.00
2013-11-14,60.2,47.4,30.9,47.1,34.4,26.3,85,63,38,30.39,30.05,17,3,17,0.00
2013-11-15,75.3,62.1,49.4,58.1,53.6,46.0,92,75,52,30.04,29.84,18,4,18,0.00
2013-11-16,78.7,71.1,61.5,70.3,65.6,58.2,93,83,68,29.89,29.71,27,10,27,0.00
2013-11-17,87.8,75.6,66.9,70.6,67.8,60.0,92,79,40,29.90,29.74,14,2,14,0.00
2013-11-18,77.3,68.4,59.4,68.2,61.6,54.7,88,79,66,30.06,29.89,14,3,14,0.00
2013-11-19,69.5,63.1,56.1,59.6,50.4,43.4,79,64,49,30.09,29.96,13,2,13,0.00
2013-11-20,71.0,64.2,58.2,65.9,59.1,52.7,93,84,73,29.98,29.85,15,3,15,0.00
2013-11-21,78.6,72.4,68.0,70.9,68.9,66.2,94,89,75,30.00,29.89,14,5,14,0.34
2013-11-22,72.0,45.1,35.4,69.9,42.5,32.3,94,91,88,30.35,29.99,28,13,28,0.13
2013-11-23,41.2,38.5,36.0,39.0,35.5,32.8,92,89,85,30.45,30.32,25,10,25,0.00
2013-11-24,41.5,37.9,34.2,38.7,34.6,32.1,92,88,75,30.47,30.31,18,5,18,0.27
2013-11-25,40.8,37.5,34.2,38.7,35.2,32.2,94,91,85,30.33,30.07,20,4,20,0.30
2013-11-26,50.5,42.3,38.2,36.8,33.4,28.1,86,71,53,30.36,30.11,26,9,26,0.00
2013-11-27,52.1,41.5,33.3,30.8,26.2,20.3,81,57,30,30.48,30.34,16,3,16,0.00
2013-11-28,54.7,39.9,31.3,32.6,27.8,19.2,90,66,26,30.44,30.34,12,1,12,0.00
2013-11-29,60.8,48.5,33.2,50.1,42.8,28.4,93,81,67,30.50,30.34,12,1,12,0.00
2013-11-30,66.4,57.6,50.7,57.8,51.5,45.1,88,80,71,30.37,30.15,12,1,12,0.00
2013-12-1,69.2,61.9,57.6,60.2,57.0,54.1,90,84,72,30.17,29.93,17,3,17,0.00
2013-12-2,77.5,66.6,57.8,58.2,56.0,53.1,91,71,46,29.92,29.66,17,4,17,0.00
2013-12-3,82.3,67.8,57.7,59.3,51.7,38.8,86,60,23,29.69,29.57,15,4,15,0.00
2013-12-4,73.2,62.4,52.9,64.9,57.5,48.1,94,84,67,29.76,29.64,13,2,13,0.00
2013-12-5,66.9,47.7,33.2,65.1,42.2,27.8,94,81,68,30.04,29.75,25,9,25,0.01
2013-12-6,38.9,33.2,29.6,31.7,28.1,22.8,90,82,71,30.42,30.01,20,11,20,0.00
2013-12-7,32.6,29.3,26.5,25.8,22.5,19.0,85,75,69,30.46,30.29,20,6,20,0.00
2013-12-8,50.4,37.6,28.7,42.8,32.7,25.0,91,82,72,30.29,30.03,12,1,12,0.00
2013-12-9,41.6,39.7,34.5,39.9,37.5,31.0,94,92,87,30.35,30.06,25,5,25,0.02
2013-12-10,48.5,36.8,29.3,31.0,26.0,21.9,88,67,37,30.51,30.34,21,4,21,0.00
2013-12-11,60.4,44.0,29.4,35.8,30.0,24.7,84,61,33,30.53,30.33,9,1,9,0.00
2013-12-12,51.7,42.9,35.1,37.2,33.1,28.4,79,69,52,30.58,30.31,10,2,10,0.00
2013-12-13,50.1,46.8,43.0,48.4,41.8,35.6,94,83,71,30.31,29.89,14,1,14,0.03
2013-12-14,56.4,48.4,43.1,47.1,39.3,29.4,94,72,51,30.32,29.89,26,7,26,0.01
2013-12-15,61.1,44.5,32.3,37.7,30.2,26.3,80,60,31,30.41,30.27,14,2,14,0.00
2013-12-16,64.3,46.8,32.7,38.0,31.7,26.9,83,59,31,30.32,30.19,17,3,17,0.00
2013-12-17,68.7,52.1,37.3,45.2,38.3,32.5,84,62,32,30.32,30.21,14,1,14,0.00
2013-12-18,68.6,54.8,40.8,54.6,46.2,35.6,92,74,50,30.28,30.04,20,5,20,0.00
2013-12-19,73.6,64.0,56.4,62.0,58.1,51.0,91,81,63,30.04,29.77,27,10,27,0.00
2013-12-20,72.8,67.5,63.3,66.0,63.4,60.6,93,87,75,29.81,29.57,27,8,27,0.00
2013-12-21,70.2,61.6,45.4,66.1,52.9,38.9,94,76,35,29.81,29.49,26,6,26,0.15
2013-12-22,56.2,48.0,40.1,43.1,37.5,29.6,83,68,51,30.35,29.81,21,7,21,0.00
2013-12-23,58.3,43.1,31.8,32.3,27.7,23.0,81,58,27,30.53,30.34,13,2,13,0.00
2013-12-24,57.4,42.7,28.9,36.5,28.3,24.0,87,61,29,30.54,30.27,16,3,16,0.00
2013-12-25,57.4,47.7,37.8,49.5,42.6,34.6,92,83,67,30.38,30.22,13,1,13,0.00
2013-12-26,52.7,47.2,42.9,44.4,39.9,35.5,89,76,67,30.42,30.31,15,3,15,0.00
2013-12-27,55.0,48.3,45.0,46.8,44.3,42.1,92,86,67,30.42,30.30,6,0,6,0.20
2013-12-28,55.2,48.9,43.5,46.3,43.6,41.0,92,82,67,30.30,30.02,12,1,12,0.00
2013-12-29,61.8,49.6,35.3,51.6,44.1,30.4,93,82,68,30.23,29.96,23,5,23,0.01
2013-12-30,43.3,37.9,34.5,32.3,28.5,24.5,83,69,56,30.40,30.19,27,6,27,0.00
2013-12-31,51.9,41.3,34.8,32.0,30.9,27.7,85,68,44,30.46,30.25,10,1,10,0.00
2014-1-1,56.9,48.2,36.2,51.4,41.3,30.7,87,77,69,30.25,30.02,16,3,16,0.00
2014-1-2,53.4,43.8,33.0,49.5,30.4,25.4,90,61,38,30.45,30.10,26,9,26,0.00